createdAt,value
2018-09-19T00:00:02.798Z,9.63
2018-09-19T00:02:31.274Z,11.67
2018-09-19T00:04:59.790Z,11.63
2018-09-19T00:07:28.237Z,10.37
2018-09-19T00:09:56.752Z,10.07
2018-09-19T00:12:25.207Z,10.73
2018-09-19T00:14:53.686Z,12.10
2018-09-19T00:17:22.153Z,11.07
2018-09-19T00:19:50.645Z,9.20
2018-09-19T00:22:19.146Z,10.83
2018-09-19T00:24:47.699Z,10.20
2018-09-19T00:27:16.201Z,13.27
2018-09-19T00:29:44.818Z,13.47
2018-09-19T00:32:13.323Z,10.03
2018-09-19T00:34:41.817Z,12.33
2018-09-19T00:37:10.323Z,12.27
2018-09-19T00:39:38.846Z,13.50
2018-09-19T00:42:07.302Z,10.67
2018-09-19T00:44:35.796Z,9.67
2018-09-19T00:47:04.278Z,10.90
2018-09-19T00:49:32.769Z,11.40
2018-09-19T00:52:01.247Z,9.50
2018-09-19T00:54:29.758Z,10.03
2018-09-19T00:56:58.220Z,9.13
2018-09-19T00:59:26.781Z,10.50
2018-09-19T01:01:55.317Z,8.80
2018-09-19T01:04:23.810Z,10.57
2018-09-19T01:06:52.378Z,12.40
2018-09-19T01:09:20.935Z,10.20
2018-09-19T01:11:49.399Z,11.37
2018-09-19T01:14:17.897Z,11.87
2018-09-19T01:16:46.368Z,10.40
2018-09-19T01:19:14.886Z,11.13
2018-09-19T01:21:43.413Z,14.23
2018-09-19T01:24:11.944Z,10.77
2018-09-19T01:26:40.432Z,10.27
2018-09-19T01:29:08.944Z,12.37
2018-09-19T01:31:37.412Z,10.90
2018-09-19T01:34:05.934Z,9.90
2018-09-19T01:36:34.426Z,10.67
2018-09-19T01:39:03.003Z,9.40
2018-09-19T01:41:31.482Z,8.93
2018-09-19T01:43:59.993Z,10.83
2018-09-19T01:46:28.475Z,9.83
2018-09-19T01:48:56.974Z,10.37
2018-09-19T01:51:25.454Z,9.93
2018-09-19T01:53:53.936Z,12.60
2018-09-19T01:56:22.404Z,17.43
2018-09-19T01:58:50.928Z,10.27
2018-09-19T02:01:19.384Z,9.30
2018-09-19T02:03:48.085Z,13.30
2018-09-19T02:06:16.777Z,10.83
2018-09-19T02:08:45.302Z,9.93
2018-09-19T02:11:13.761Z,9.63
2018-09-19T02:13:42.278Z,12.27
2018-09-19T02:16:10.761Z,10.37
2018-09-19T02:18:39.348Z,9.40
2018-09-19T02:21:07.870Z,7.93
2018-09-19T02:23:36.341Z,12.60
2018-09-19T02:26:04.945Z,8.73
2018-09-19T02:28:33.466Z,11.27
2018-09-19T02:31:01.976Z,10.30
2018-09-19T02:33:30.491Z,8.90
2018-09-19T02:35:59.041Z,11.93
2018-09-19T02:38:27.472Z,11.40
2018-09-19T02:40:55.926Z,8.07
2018-09-19T02:43:24.345Z,8.80
2018-09-19T02:45:52.836Z,7.97
2018-09-19T02:48:21.297Z,10.90
2018-09-19T02:50:49.834Z,11.63
2018-09-19T02:53:18.296Z,8.97
2018-09-19T02:55:46.803Z,9.37
2018-09-19T02:58:15.281Z,10.23
2018-09-19T03:00:43.773Z,9.67
2018-09-19T03:03:12.259Z,9.80
2018-09-19T03:05:40.755Z,7.63
2018-09-19T03:08:09.278Z,10.13
2018-09-19T03:10:37.789Z,8.73
2018-09-19T03:13:06.270Z,9.50
2018-09-19T03:15:34.836Z,9.10
2018-09-19T03:18:03.324Z,8.43
2018-09-19T03:20:31.790Z,9.57
2018-09-19T03:23:00.514Z,9.20
2018-09-19T03:25:29.035Z,9.67
2018-09-19T03:27:57.511Z,8.30
2018-09-19T03:30:25.956Z,7.90
2018-09-19T03:32:54.419Z,8.33
2018-09-19T03:35:22.945Z,8.20
2018-09-19T03:37:51.372Z,10.33
2018-09-19T03:40:19.836Z,9.80
2018-09-19T03:42:48.312Z,11.27
2018-09-19T03:45:16.755Z,8.67
2018-09-19T03:47:45.230Z,8.90
2018-09-19T03:50:13.716Z,7.67
2018-09-19T03:52:42.182Z,7.13
2018-09-19T03:55:10.635Z,9.37
2018-09-19T03:57:39.317Z,7.03
2018-09-19T04:00:08.227Z,7.47
2018-09-19T04:02:36.703Z,8.13
2018-09-19T04:05:05.670Z,8.07
2018-09-19T04:07:34.149Z,10.40
2018-09-19T04:10:02.655Z,7.77
2018-09-19T04:12:31.162Z,7.93
2018-09-19T04:14:59.758Z,8.50
2018-09-19T04:17:28.211Z,8.33
2018-09-19T04:19:56.667Z,6.77
2018-09-19T04:22:25.148Z,9.33
2018-09-19T04:24:53.650Z,8.40
2018-09-19T04:27:22.135Z,7.10
2018-09-19T04:29:50.607Z,5.93
2018-09-19T04:32:19.226Z,5.90
2018-09-19T04:34:47.598Z,6.60
2018-09-19T04:37:16.063Z,7.77
2018-09-19T04:39:44.513Z,6.30
2018-09-19T04:42:13.080Z,6.77
2018-09-19T04:44:41.549Z,5.67
2018-09-19T04:47:10.240Z,7.33
2018-09-19T04:49:38.722Z,8.03
2018-09-19T04:52:07.724Z,8.00
2018-09-19T04:54:36.346Z,6.57
2018-09-19T04:57:04.917Z,7.00
2018-09-19T04:59:33.388Z,6.07
2018-09-19T05:02:01.873Z,7.30
2018-09-19T05:04:30.323Z,5.77
2018-09-19T05:06:58.793Z,6.20
2018-09-19T05:09:27.267Z,5.60
2018-09-19T05:11:55.736Z,5.40
2018-09-19T05:14:24.178Z,5.23
2018-09-19T05:16:52.638Z,5.27
2018-09-19T05:19:21.076Z,4.27
2018-09-19T05:21:49.550Z,5.03
2018-09-19T05:24:17.984Z,6.13
2018-09-19T05:26:46.538Z,5.50
2018-09-19T05:29:14.965Z,6.63
2018-09-19T05:31:43.461Z,5.50
2018-09-19T05:34:11.931Z,8.63
2018-09-19T05:36:40.406Z,6.17
2018-09-19T05:39:09.140Z,6.13
2018-09-19T05:41:37.737Z,5.60
2018-09-19T05:44:06.274Z,8.87
2018-09-19T05:46:34.810Z,6.13
2018-09-19T05:49:03.257Z,6.67
2018-09-19T05:51:31.737Z,6.47
2018-09-19T05:54:00.182Z,7.00
2018-09-19T05:56:28.650Z,6.50
2018-09-19T05:58:57.108Z,7.17
2018-09-19T06:01:25.607Z,5.90
2018-09-19T06:03:54.251Z,8.07
2018-09-19T06:06:22.750Z,7.70
2018-09-19T06:08:51.214Z,7.17
2018-09-19T06:11:19.799Z,8.57
2018-09-19T06:13:48.345Z,7.63
2018-09-19T06:16:16.818Z,6.20
2018-09-19T06:18:45.255Z,7.97
2018-09-19T06:21:13.753Z,6.67
2018-09-19T06:23:42.184Z,7.70
2018-09-19T06:26:10.651Z,7.70
2018-09-19T06:28:39.074Z,7.63
2018-09-19T06:31:07.718Z,6.10
2018-09-19T06:33:36.236Z,6.03
2018-09-19T06:36:04.719Z,7.27
2018-09-19T06:38:33.135Z,6.37
2018-09-19T06:41:01.802Z,6.87
2018-09-19T06:43:30.244Z,5.47
2018-09-19T06:45:59.138Z,8.03
2018-09-19T06:48:27.590Z,6.77
2018-09-19T06:50:56.036Z,5.97
2018-09-19T06:53:24.501Z,9.40
2018-09-19T06:55:52.973Z,6.23
2018-09-19T06:58:21.445Z,5.33
2018-09-19T07:00:49.889Z,4.93
2018-09-19T07:03:18.345Z,7.70
2018-09-19T07:05:46.882Z,8.93
2018-09-19T07:08:15.507Z,4.30
2018-09-19T07:10:44.046Z,5.23
2018-09-19T07:13:12.483Z,6.93
2018-09-19T07:15:40.946Z,6.37
2018-09-19T07:18:09.463Z,4.07
2018-09-19T07:20:37.930Z,5.80
2018-09-19T07:23:06.522Z,6.97
2018-09-19T07:25:34.973Z,6.57
2018-09-19T07:28:03.508Z,6.13
2018-09-19T07:30:31.928Z,7.97
2018-09-19T07:33:00.419Z,4.30
2018-09-19T07:35:28.879Z,5.00
2018-09-19T07:37:57.422Z,5.23
2018-09-19T07:40:25.907Z,6.13
2018-09-19T07:42:54.354Z,4.53
2018-09-19T07:45:22.807Z,4.07
2018-09-19T07:47:51.282Z,4.10
2018-09-19T07:50:19.774Z,7.47
2018-09-19T07:52:48.244Z,4.37
2018-09-19T07:55:16.719Z,3.53
2018-09-19T07:57:45.204Z,3.97
2018-09-19T08:00:13.643Z,3.93
2018-09-19T08:02:42.102Z,4.20
2018-09-19T08:05:10.574Z,4.77
2018-09-19T08:07:39.076Z,4.57
2018-09-19T08:10:07.548Z,6.27
2018-09-19T08:12:36.038Z,6.33
2018-09-19T08:15:04.531Z,4.57
2018-09-19T08:17:33.020Z,4.10
2018-09-19T08:20:01.458Z,5.47
2018-09-19T08:22:29.998Z,3.23
2018-09-19T08:24:58.379Z,3.93
2018-09-19T08:27:26.815Z,6.07
2018-09-19T08:29:55.275Z,4.23
2018-09-19T08:32:23.760Z,2.97
2018-09-19T08:34:52.224Z,3.10
2018-09-19T08:37:20.709Z,5.03
2018-09-19T08:39:49.197Z,4.50
2018-09-19T08:42:17.806Z,2.93
2018-09-19T08:44:46.287Z,3.30
2018-09-19T08:47:14.809Z,4.93
2018-09-19T08:49:43.342Z,2.97
2018-09-19T08:52:11.787Z,8.13
2018-09-19T08:54:40.427Z,4.17
2018-09-19T08:57:08.921Z,4.00
2018-09-19T08:59:37.486Z,2.30
2018-09-19T09:02:05.996Z,3.73
2018-09-19T09:04:34.473Z,3.50
2018-09-19T09:07:02.919Z,3.43
2018-09-19T09:09:31.430Z,2.40
2018-09-19T09:11:59.976Z,3.37
2018-09-19T09:14:28.508Z,3.93
2018-09-19T09:16:56.973Z,3.07
2018-09-19T09:19:25.455Z,3.50
2018-09-19T09:21:53.894Z,3.17
2018-09-19T09:24:22.431Z,3.13
2018-09-19T09:26:50.902Z,3.93
2018-09-19T09:29:19.367Z,5.13
2018-09-19T09:31:47.920Z,6.23
2018-09-19T09:34:16.419Z,4.80
2018-09-19T09:36:44.978Z,5.37
2018-09-19T09:39:13.438Z,9.73
2018-09-19T09:41:41.905Z,8.23
2018-09-19T09:44:10.480Z,10.43
2018-09-19T09:46:38.979Z,7.43
2018-09-19T09:49:07.454Z,7.80
2018-09-19T09:51:35.983Z,5.20
2018-09-19T09:54:04.470Z,8.23
2018-09-19T09:56:32.919Z,10.20
2018-09-19T09:59:01.450Z,7.77
2018-09-19T10:01:29.888Z,5.40
2018-09-19T10:03:58.342Z,8.87
2018-09-19T10:06:26.853Z,4.20
2018-09-19T10:08:55.308Z,4.33
2018-09-19T10:11:23.741Z,3.77
2018-09-19T10:13:52.249Z,3.73
2018-09-19T10:16:20.705Z,3.53
2018-09-19T10:18:49.177Z,3.57
2018-09-19T10:21:17.785Z,3.47
2018-09-19T10:23:46.296Z,3.43
2018-09-19T10:26:14.714Z,3.63
2018-09-19T10:28:43.188Z,3.57
2018-09-19T10:31:11.631Z,3.73
2018-09-19T10:33:40.088Z,2.87
2018-09-19T10:36:08.556Z,3.03
2018-09-19T10:38:37.011Z,3.37
2018-09-19T10:41:05.447Z,2.93
2018-09-19T10:43:33.975Z,5.73
2018-09-19T10:46:02.440Z,3.23
2018-09-19T10:48:30.975Z,3.87
2018-09-19T10:50:59.433Z,3.80
2018-09-19T10:53:27.972Z,3.27
2018-09-19T10:55:56.414Z,3.53
2018-09-19T10:58:24.903Z,3.67
2018-09-19T11:00:53.355Z,3.73
2018-09-19T11:03:21.873Z,3.77
2018-09-19T11:05:50.364Z,9.50
2018-09-19T11:08:18.904Z,4.20
2018-09-19T11:10:47.430Z,4.47
2018-09-19T11:13:15.898Z,2.93
2018-09-19T11:15:44.341Z,4.80
2018-09-19T11:18:12.819Z,4.37
2018-09-19T11:20:41.277Z,4.43
2018-09-19T11:23:10.606Z,4.83
2018-09-19T11:25:39.058Z,3.95
2018-09-19T11:28:07.636Z,5.22
2018-09-19T11:30:36.080Z,4.53
2018-09-19T11:33:04.578Z,3.98
2018-09-19T11:35:33.120Z,2.95
2018-09-19T11:38:01.650Z,4.67
2018-09-19T11:40:30.145Z,6.17
2018-09-19T11:42:58.868Z,4.83
2018-09-19T11:45:27.491Z,4.83
2018-09-19T11:47:55.986Z,4.00
2018-09-19T11:50:24.436Z,3.47
2018-09-19T11:52:52.914Z,3.80
2018-09-19T11:55:21.368Z,2.80
2018-09-19T11:57:49.847Z,3.55
2018-09-19T12:00:18.321Z,5.58
2018-09-19T12:02:47.378Z,2.42
2018-09-19T12:05:15.843Z,5.90
2018-09-19T12:07:44.304Z,2.62
2018-09-19T12:10:12.844Z,2.60
2018-09-19T12:12:41.273Z,4.40
2018-09-19T12:15:09.769Z,3.50
2018-09-19T12:17:38.218Z,4.28
2018-09-19T12:20:06.730Z,4.35
2018-09-19T12:22:35.190Z,3.90
2018-09-19T12:25:03.854Z,4.97
2018-09-19T12:27:32.317Z,3.47
2018-09-19T12:30:00.952Z,4.17
2018-09-19T12:32:29.389Z,3.08
2018-09-19T12:34:57.857Z,4.22
2018-09-19T12:37:26.307Z,3.58
2018-09-19T12:39:54.797Z,3.60
2018-09-19T12:42:23.286Z,2.85
2018-09-19T12:44:51.758Z,3.45
2018-09-19T12:47:20.295Z,2.62
2018-09-19T12:49:49.282Z,2.83
2018-09-19T12:52:17.765Z,4.92
2018-09-19T12:54:46.256Z,3.77
2018-09-19T12:57:14.699Z,2.50
2018-09-19T12:59:43.198Z,3.35
2018-09-19T13:02:11.663Z,2.77
2018-09-19T13:04:41.039Z,4.95
2018-09-19T13:07:09.507Z,5.33
2018-09-19T13:09:38.014Z,2.45
2018-09-19T13:12:06.531Z,2.33
2018-09-19T13:14:35.008Z,3.55
2018-09-19T13:17:03.474Z,3.50
2018-09-19T13:19:31.967Z,5.80
2018-09-19T13:22:00.430Z,2.37
2018-09-19T13:24:28.902Z,3.42
2018-09-19T13:26:57.402Z,2.22
2018-09-19T13:29:25.883Z,3.22
2018-09-19T13:31:54.903Z,2.00
2018-09-19T13:34:23.381Z,2.33
2018-09-19T13:36:51.813Z,2.42
2018-09-19T13:39:20.292Z,2.15
2018-09-19T13:41:48.733Z,4.60
2018-09-19T13:44:17.205Z,2.65
2018-09-19T13:46:45.684Z,2.27
2018-09-19T13:49:23.213Z,2.92
2018-09-19T13:51:51.654Z,2.58
2018-09-19T13:54:20.157Z,3.60
2018-09-19T13:56:48.593Z,2.52
2018-09-19T13:59:17.148Z,3.77
2018-09-19T14:01:45.612Z,2.70
2018-09-19T14:04:14.400Z,6.65
2018-09-19T14:06:42.863Z,3.67
2018-09-19T14:09:11.355Z,2.55
2018-09-19T14:11:39.864Z,2.87
2018-09-19T14:14:08.331Z,5.58
2018-09-19T14:16:36.808Z,2.45
2018-09-19T14:19:05.447Z,2.55
2018-09-19T14:21:33.913Z,4.80
2018-09-19T14:24:02.376Z,3.17
2018-09-19T14:26:30.910Z,3.55
2018-09-19T14:28:59.357Z,2.52
2018-09-19T14:31:27.888Z,4.42
2018-09-19T14:33:56.363Z,6.78
2018-09-19T14:36:24.915Z,9.43
2018-09-19T14:38:53.399Z,2.75
2018-09-19T14:41:22.026Z,2.77
2018-09-19T14:43:50.428Z,7.95
2018-09-19T14:46:18.923Z,3.08
2018-09-19T14:48:47.394Z,3.62
2018-09-19T14:51:15.866Z,3.27
2018-09-19T14:53:44.316Z,2.77
2018-09-19T14:56:12.798Z,7.40
2018-09-19T14:58:41.264Z,5.25
2018-09-19T15:01:09.736Z,3.45
2018-09-19T15:03:38.173Z,2.90
2018-09-19T15:06:06.719Z,3.83
2018-09-19T15:08:35.206Z,2.62
2018-09-19T15:11:03.941Z,3.02
2018-09-19T15:13:32.455Z,2.85
2018-09-19T15:16:00.926Z,3.15
2018-09-19T15:18:29.369Z,4.70
2018-09-19T15:20:57.875Z,3.70
2018-09-19T15:23:26.423Z,4.50
2018-09-19T15:25:54.929Z,3.47
2018-09-19T15:28:23.492Z,4.28
2018-09-19T15:30:52.007Z,4.58
2018-09-19T15:33:20.470Z,4.30
2018-09-19T15:35:49.037Z,3.85
2018-09-19T15:38:17.497Z,4.47
2018-09-19T15:40:45.994Z,3.60
2018-09-19T15:43:14.470Z,3.00
2018-09-19T15:45:42.949Z,3.15
2018-09-19T15:48:11.403Z,3.85
2018-09-19T15:50:39.892Z,4.05
2018-09-19T15:53:08.341Z,6.25
2018-09-19T15:55:36.891Z,4.55
2018-09-19T15:58:05.328Z,4.03
2018-09-19T16:00:33.862Z,4.53
2018-09-19T16:03:02.391Z,4.75
2018-09-19T16:05:30.846Z,4.35
2018-09-19T16:07:59.290Z,3.80
2018-09-19T16:10:27.802Z,4.70
2018-09-19T16:12:56.261Z,7.55
2018-09-19T16:15:24.763Z,3.98
2018-09-19T16:17:53.193Z,4.80
2018-09-19T16:20:22.006Z,5.42
2018-09-19T16:22:50.443Z,9.40
2018-09-19T16:25:19.283Z,5.72
2018-09-19T16:27:47.717Z,4.47
2018-09-19T16:30:16.148Z,6.40
2018-09-19T16:32:44.710Z,4.35
2018-09-19T16:35:13.171Z,4.00
2018-09-19T16:37:41.729Z,4.40
2018-09-19T16:40:10.220Z,5.25
2018-09-19T16:42:38.699Z,4.50
2018-09-19T16:45:07.254Z,5.62
2018-09-19T16:47:35.772Z,5.33
2018-09-19T16:50:04.605Z,7.50
2018-09-19T16:52:33.102Z,4.17
2018-09-19T16:55:01.537Z,6.22
2018-09-19T16:57:30.030Z,5.47
2018-09-19T16:59:58.461Z,3.45
2018-09-19T17:02:26.981Z,3.87
2018-09-19T17:04:55.409Z,4.67
2018-09-19T17:07:23.879Z,5.58
2018-09-19T17:09:52.336Z,4.90
2018-09-19T17:12:20.800Z,4.25
2018-09-19T17:14:49.254Z,6.40
2018-09-19T17:17:17.743Z,4.92
2018-09-19T17:19:46.364Z,3.70
2018-09-19T17:22:14.891Z,3.83
2018-09-19T17:24:43.373Z,4.05
2018-09-19T17:27:11.894Z,5.53
2018-09-19T17:29:40.345Z,3.60
2018-09-19T17:32:08.946Z,3.47
2018-09-19T17:34:44.110Z,4.75
2018-09-19T17:37:12.622Z,6.87
2018-09-19T17:39:41.159Z,9.13
2018-09-19T17:42:09.676Z,4.17
2018-09-19T17:44:38.207Z,5.00
2018-09-19T17:47:06.897Z,5.03
2018-09-19T17:49:35.431Z,3.70
2018-09-19T17:52:04.135Z,6.07
2018-09-19T17:54:33.409Z,4.03
2018-09-19T17:57:01.926Z,5.43
2018-09-19T17:59:30.529Z,4.60
2018-09-19T18:01:58.990Z,4.00
2018-09-19T18:04:27.491Z,4.58
2018-09-19T18:06:55.943Z,3.57
2018-09-19T18:09:25.610Z,3.40
2018-09-19T18:11:55.896Z,3.50
2018-09-19T18:14:25.869Z,3.83
2018-09-19T18:16:54.281Z,5.97
2018-09-19T18:19:22.872Z,4.73
2018-09-19T18:21:51.303Z,4.33
2018-09-19T18:24:19.835Z,4.03
2018-09-19T18:26:48.263Z,5.63
2018-09-19T18:29:16.739Z,4.40
2018-09-19T18:31:45.161Z,5.93
2018-09-19T18:34:13.623Z,3.93
2018-09-19T18:36:42.064Z,4.17
2018-09-19T18:39:10.551Z,4.43
2018-09-19T18:41:39.098Z,5.27
2018-09-19T18:44:07.594Z,4.00
2018-09-19T18:46:36.052Z,5.57
2018-09-19T18:49:04.547Z,3.77
2018-09-19T18:51:33.012Z,3.90
2018-09-19T18:54:01.492Z,5.70
2018-09-19T18:56:29.927Z,5.20
2018-09-19T18:58:58.437Z,5.30
2018-09-19T19:01:26.853Z,5.23
2018-09-19T19:03:55.329Z,5.50
2018-09-19T19:06:23.766Z,3.97
2018-09-19T19:08:52.306Z,4.33
2018-09-19T19:11:20.766Z,6.47
2018-09-19T19:13:49.341Z,4.93
2018-09-19T19:16:18.096Z,4.70
2018-09-19T19:18:59.983Z,5.10
2018-09-19T19:21:28.552Z,5.07
2018-09-19T19:24:00.235Z,4.40
2018-09-19T19:26:30.255Z,4.97
2018-09-19T19:28:58.878Z,4.80
2018-09-19T19:31:27.347Z,4.67
2018-09-19T19:33:55.872Z,3.63
2018-09-19T19:36:24.707Z,4.17
2018-09-19T19:38:53.267Z,3.77
2018-09-19T19:41:22.035Z,4.43
2018-09-19T19:43:50.553Z,5.00
2018-09-19T19:46:19.123Z,4.27
2018-09-19T19:48:47.598Z,4.40
2018-09-19T19:51:16.077Z,3.80
2018-09-19T19:53:44.555Z,3.23
2018-09-19T19:56:13.060Z,6.03
2018-09-19T19:58:41.617Z,6.87
2018-09-19T20:01:10.145Z,4.77
2018-09-19T20:03:38.657Z,6.10
2018-09-19T20:06:07.247Z,4.53
2018-09-19T20:08:35.771Z,4.77
2018-09-19T20:11:04.273Z,7.53
2018-09-19T20:13:32.730Z,4.93
2018-09-19T20:16:01.164Z,4.47
2018-09-19T20:18:29.645Z,5.53
2018-09-19T20:20:58.267Z,4.03
2018-09-19T20:23:26.755Z,4.40
2018-09-19T20:25:55.194Z,5.47
2018-09-19T20:28:24.075Z,5.40
2018-09-19T20:30:52.566Z,4.43
2018-09-19T20:33:21.029Z,5.80
2018-09-19T20:35:50.061Z,5.90
2018-09-19T20:38:18.523Z,4.07
2018-09-19T20:40:46.985Z,4.10
2018-09-19T20:43:15.456Z,4.37
2018-09-19T20:45:43.951Z,6.07
2018-09-19T20:48:12.867Z,5.97
2018-09-19T20:50:41.411Z,5.53
2018-09-19T20:53:09.905Z,6.53
2018-09-19T20:55:38.410Z,6.07
2018-09-19T20:58:06.879Z,5.73
2018-09-19T21:00:35.388Z,6.10
2018-09-19T21:03:03.852Z,4.30
2018-09-19T21:05:32.347Z,5.50
2018-09-19T21:08:03.447Z,6.17
2018-09-19T21:10:32.030Z,6.30
2018-09-19T21:13:00.462Z,5.70
2018-09-19T21:15:29.004Z,6.07
2018-09-19T21:17:57.459Z,4.33
2018-09-19T21:20:25.974Z,4.83
2018-09-19T21:22:54.424Z,5.03
2018-09-19T21:25:22.951Z,5.33
2018-09-19T21:27:51.390Z,5.50
2018-09-19T21:30:19.870Z,5.57
2018-09-19T21:32:48.410Z,6.30
2018-09-19T21:35:16.980Z,5.90
2018-09-19T21:37:45.420Z,5.47
2018-09-19T21:40:13.945Z,4.93
2018-09-19T21:42:42.726Z,7.07
2018-09-19T21:45:11.195Z,6.17
2018-09-19T21:47:39.674Z,6.37
2018-09-19T21:50:08.126Z,8.20
2018-09-19T21:52:36.650Z,6.00
2018-09-19T21:55:05.120Z,6.17
2018-09-19T21:57:33.701Z,6.30
2018-09-19T22:00:02.525Z,5.50
2018-09-19T22:02:31.042Z,7.93
2018-09-19T22:04:59.542Z,5.47
2018-09-19T22:07:28.037Z,5.37
2018-09-19T22:09:56.667Z,5.37
2018-09-19T22:12:25.237Z,5.93
2018-09-19T22:14:53.699Z,6.47
2018-09-19T22:17:22.231Z,5.00
2018-09-19T22:19:50.664Z,4.50
2018-09-19T22:22:19.193Z,4.77
2018-09-19T22:24:47.701Z,4.93
2018-09-19T22:27:16.216Z,5.40
2018-09-19T22:29:44.719Z,5.97
2018-09-19T22:32:13.232Z,5.07
2018-09-19T22:34:41.713Z,5.33
2018-09-19T22:37:10.213Z,6.13
2018-09-19T22:39:38.671Z,5.27
2018-09-19T22:42:07.196Z,4.50
2018-09-19T22:44:35.691Z,5.63
2018-09-19T22:47:04.347Z,4.17
2018-09-19T22:49:32.804Z,4.13
2018-09-19T22:52:01.498Z,4.73
2018-09-19T22:54:29.935Z,4.30
2018-09-19T22:56:58.433Z,4.73
2018-09-19T22:59:26.892Z,5.37
2018-09-19T23:01:55.414Z,4.40
2018-09-19T23:04:23.882Z,7.97
2018-09-19T23:06:52.368Z,8.87
2018-09-19T23:09:20.867Z,4.77
2018-09-19T23:11:49.343Z,10.40
2018-09-19T23:14:17.798Z,5.17
2018-09-19T23:16:46.247Z,5.20
2018-09-19T23:19:14.735Z,5.67
2018-09-19T23:21:43.208Z,5.67
2018-09-19T23:24:11.693Z,5.47
2018-09-19T23:26:40.231Z,4.70
2018-09-19T23:29:08.696Z,6.17
2018-09-19T23:31:37.153Z,4.17
2018-09-19T23:34:05.643Z,4.97
2018-09-19T23:36:34.104Z,4.90
2018-09-19T23:39:02.587Z,7.53
2018-09-19T23:41:31.044Z,4.30
2018-09-19T23:43:59.549Z,4.53
2018-09-19T23:46:28.016Z,4.73
2018-09-19T23:48:56.552Z,5.63
2018-09-19T23:51:25.002Z,5.47
2018-09-19T23:53:53.518Z,5.10
2018-09-19T23:56:21.956Z,4.90
2018-09-19T23:58:50.489Z,4.13
